createdAt,value
2019-03-25T00:00:24.089Z,4
2019-03-25T00:01:14.959Z,3.9
2019-03-25T00:02:05.836Z,3.9
2019-03-25T00:02:56.704Z,3.9
2019-03-25T00:03:47.667Z,3.7
2019-03-25T00:04:38.544Z,3.7
2019-03-25T00:05:29.409Z,3.7
2019-03-25T00:06:20.276Z,3.6
2019-03-25T00:07:11.148Z,3.6
2019-03-25T00:08:02.019Z,3.6
2019-03-25T00:09:03.515Z,3.5
2019-03-25T00:09:48.723Z,3.5
2019-03-25T00:10:39.589Z,3.5
2019-03-25T00:11:30.464Z,3.4
2019-03-25T00:12:21.347Z,3.4
2019-03-25T00:13:12.213Z,3.3
2019-03-25T00:14:03.108Z,3.3
2019-03-25T00:14:53.984Z,3.2
2019-03-25T00:15:44.849Z,3.2
2019-03-25T00:16:35.717Z,3.2
2019-03-25T00:17:26.587Z,3.1
2019-03-25T00:18:17.458Z,3.1
2019-03-25T00:19:08.357Z,3.1
2019-03-25T00:19:59.231Z,3.1
2019-03-25T00:20:50.097Z,3
2019-03-25T00:21:40.965Z,2.9
2019-03-25T00:22:31.834Z,2.9
2019-03-25T00:23:22.713Z,2.9
2019-03-25T00:24:13.615Z,2.8
2019-03-25T00:25:04.490Z,2.7
2019-03-25T00:25:55.367Z,2.7
2019-03-25T00:26:46.234Z,2.7
2019-03-25T00:27:37.100Z,2.7
2019-03-25T00:28:27.978Z,2.7
2019-03-25T00:29:18.879Z,2.6
2019-03-25T00:30:09.744Z,2.6
2019-03-25T00:31:00.619Z,2.6
2019-03-25T00:31:51.499Z,2.5
2019-03-25T00:32:42.366Z,2.5
2019-03-25T00:33:33.233Z,2.4
2019-03-25T00:34:24.135Z,2.4
2019-03-25T00:35:14.998Z,2.4
2019-03-25T00:36:10.871Z,2.4
2019-03-25T00:37:01.741Z,2.4
2019-03-25T00:37:52.610Z,2.3
2019-03-25T00:38:43.482Z,2.3
2019-03-25T00:39:34.379Z,2.3
2019-03-25T00:40:25.262Z,2.2
2019-03-25T00:41:16.125Z,2.2
2019-03-25T00:42:06.991Z,2.2
2019-03-25T00:42:57.864Z,2.2
2019-03-25T00:43:48.753Z,2.2
2019-03-25T00:44:39.650Z,2.2
2019-03-25T00:45:30.522Z,2.2
2019-03-25T00:46:21.388Z,2.1
2019-03-25T00:47:12.258Z,2.1
2019-03-25T00:48:03.138Z,2.1
2019-03-25T00:48:54.005Z,2.1
2019-03-25T00:49:44.906Z,2.1
2019-03-25T00:50:35.778Z,2.1
2019-03-25T00:51:26.649Z,2.1
2019-03-25T00:52:17.514Z,2.1
2019-03-25T00:53:08.385Z,2.1
2019-03-25T00:53:59.252Z,2.1
2019-03-25T00:54:50.469Z,2.1
2019-03-25T00:55:41.363Z,2.1
2019-03-25T00:56:32.231Z,2.1
2019-03-25T00:57:23.111Z,2.1
2019-03-25T00:58:13.979Z,2.2
2019-03-25T00:59:04.845Z,2.2
2019-03-25T00:59:55.746Z,2.2
2019-03-25T01:00:46.619Z,2.2
2019-03-25T01:01:37.491Z,2.1
2019-03-25T01:02:28.362Z,2.1
2019-03-25T01:03:19.231Z,2.1
2019-03-25T01:04:10.099Z,2.1
2019-03-25T01:05:01.006Z,2.1
2019-03-25T01:05:51.876Z,2.1
2019-03-25T01:06:42.752Z,2.1
2019-03-25T01:07:33.636Z,2.1
2019-03-25T01:08:24.518Z,2.1
2019-03-25T01:09:15.384Z,2.1
2019-03-25T01:10:06.282Z,2.1
2019-03-25T01:10:57.147Z,2
2019-03-25T01:11:49.173Z,2.1
2019-03-25T01:12:40.345Z,2.1
2019-03-25T01:13:31.220Z,2.2
2019-03-25T01:14:22.086Z,2.2
2019-03-25T01:15:12.980Z,2.2
2019-03-25T01:16:03.849Z,2.2
2019-03-25T01:16:54.719Z,2.2
2019-03-25T01:17:45.588Z,2.2
2019-03-25T01:18:36.459Z,2.2
2019-03-25T01:19:27.321Z,2.2
2019-03-25T01:20:18.268Z,2.2
2019-03-25T01:21:09.231Z,2.3
2019-03-25T01:22:00.102Z,2.4
2019-03-25T01:22:50.996Z,2.4
2019-03-25T01:23:41.869Z,2.4
2019-03-25T01:24:32.752Z,2.4
2019-03-25T01:25:23.656Z,2.4
2019-03-25T01:26:14.545Z,2.4
2019-03-25T01:27:05.426Z,2.2
2019-03-25T01:27:56.312Z,2.1
2019-03-25T01:28:47.182Z,1.9
2019-03-25T01:29:38.062Z,1.6
2019-03-25T01:30:28.960Z,1.6
2019-03-25T01:31:19.828Z,1.4
2019-03-25T01:32:10.691Z,1.4
2019-03-25T01:33:01.562Z,1.4
2019-03-25T01:33:52.439Z,1.5
2019-03-25T01:34:43.305Z,1.5
2019-03-25T01:35:34.206Z,1.6
2019-03-25T01:36:25.075Z,1.6
2019-03-25T01:37:15.939Z,1.6
2019-03-25T01:38:06.807Z,1.5
2019-03-25T01:38:57.685Z,1.5
2019-03-25T01:39:48.556Z,1.4
2019-03-25T01:40:39.453Z,1.4
2019-03-25T01:41:30.322Z,1.4
2019-03-25T01:42:21.193Z,1.4
2019-03-25T01:43:12.059Z,1.4
2019-03-25T01:44:02.929Z,1.4
2019-03-25T01:44:53.800Z,1.4
2019-03-25T01:45:44.698Z,1.4
2019-03-25T01:46:35.563Z,1.3
2019-03-25T01:47:26.434Z,1.3
2019-03-25T01:48:17.304Z,1.2
2019-03-25T01:49:08.170Z,1.1
2019-03-25T01:49:59.040Z,1
2019-03-25T01:50:49.953Z,0.9
2019-03-25T01:51:40.819Z,0.8
2019-03-25T01:52:31.686Z,0.6
2019-03-25T01:53:22.554Z,0.5
2019-03-25T01:54:13.429Z,0.4
2019-03-25T01:55:12.912Z,0.3
2019-03-25T01:56:00.134Z,0.1
2019-03-25T01:56:51.001Z,-0.1
2019-03-25T01:57:41.870Z,-0.3
2019-03-25T01:58:32.736Z,-0.3
2019-03-25T01:59:23.606Z,-0.4
2019-03-25T02:00:14.480Z,-0.4
2019-03-25T02:01:05.380Z,-0.5
2019-03-25T02:01:56.243Z,-0.6
2019-03-25T02:02:47.111Z,-0.7
2019-03-25T02:03:37.982Z,-0.8
2019-03-25T02:04:28.852Z,-0.8
2019-03-25T02:05:19.723Z,-0.8
2019-03-25T02:06:10.625Z,-0.8
2019-03-25T02:07:01.493Z,-0.9
2019-03-25T02:07:52.358Z,-0.9
2019-03-25T02:08:43.226Z,-0.8
2019-03-25T02:09:34.096Z,-0.8
2019-03-25T02:10:24.966Z,-0.9
2019-03-25T02:11:15.867Z,-0.9
2019-03-25T02:12:06.739Z,-1
2019-03-25T02:12:57.611Z,-1.1
2019-03-25T02:13:48.475Z,-1.1
2019-03-25T02:14:39.347Z,-1
2019-03-25T02:15:30.213Z,-1
2019-03-25T02:16:21.133Z,-1
2019-03-25T02:17:12.003Z,-0.9
2019-03-25T02:18:02.868Z,-0.9
2019-03-25T02:18:53.733Z,-0.8
2019-03-25T02:19:44.612Z,-0.9
2019-03-25T02:20:35.482Z,-0.9
2019-03-25T02:21:26.363Z,-1
2019-03-25T02:22:17.263Z,-1
2019-03-25T02:23:08.293Z,-1.1
2019-03-25T02:23:59.294Z,-1.1
2019-03-25T02:24:50.164Z,-1
2019-03-25T02:25:41.030Z,-1
2019-03-25T02:26:31.925Z,-1
2019-03-25T02:27:22.793Z,-1
2019-03-25T02:28:13.664Z,-1.1
2019-03-25T02:29:04.532Z,-1.1
2019-03-25T02:29:55.403Z,-1.1
2019-03-25T02:30:46.271Z,-1.1
2019-03-25T02:31:37.167Z,-1
2019-03-25T02:32:28.063Z,-0.8
2019-03-25T02:33:18.931Z,-0.8
2019-03-25T02:34:09.811Z,-0.8
2019-03-25T02:35:00.756Z,-0.7
2019-03-25T02:35:51.639Z,-0.6
2019-03-25T02:36:42.533Z,-0.4
2019-03-25T02:37:33.401Z,-0.3
2019-03-25T02:38:24.276Z,-0.3
2019-03-25T02:39:15.148Z,-0.2
2019-03-25T02:40:06.038Z,0
2019-03-25T02:40:56.914Z,0.1
2019-03-25T02:41:47.812Z,0.1
2019-03-25T02:42:38.686Z,-0.1
2019-03-25T02:43:29.558Z,-0.3
2019-03-25T02:44:20.439Z,-0.5
2019-03-25T02:45:11.312Z,-0.6
2019-03-25T02:46:02.181Z,-0.8
2019-03-25T02:46:53.086Z,-0.8
2019-03-25T02:47:43.956Z,-0.8
2019-03-25T02:48:34.832Z,-0.8
2019-03-25T02:49:25.758Z,-0.7
2019-03-25T02:50:16.661Z,-0.6
2019-03-25T02:51:07.534Z,-0.6
2019-03-25T02:51:58.445Z,-0.4
2019-03-25T02:52:49.337Z,-0.2
2019-03-25T02:53:40.213Z,0.1
2019-03-25T02:54:31.081Z,0.3
2019-03-25T02:55:21.963Z,0.5
2019-03-25T02:56:12.848Z,0.7
2019-03-25T02:57:03.746Z,0.7
2019-03-25T02:57:54.614Z,0.5
2019-03-25T02:58:45.483Z,0.4
2019-03-25T02:59:36.352Z,0.3
2019-03-25T03:00:27.223Z,0
2019-03-25T03:01:18.091Z,-0.2
2019-03-25T03:02:08.998Z,-0.3
2019-03-25T03:02:59.868Z,-0.5
2019-03-25T03:03:50.742Z,-0.6
2019-03-25T03:04:41.611Z,-0.6
2019-03-25T03:05:32.484Z,-0.7
2019-03-25T03:06:23.354Z,-0.8
2019-03-25T03:07:14.254Z,-0.8
2019-03-25T03:08:05.122Z,-0.8
2019-03-25T03:08:55.987Z,-0.8
2019-03-25T03:09:46.855Z,-0.8
2019-03-25T03:10:37.732Z,-0.8
2019-03-25T03:11:28.606Z,-0.9
2019-03-25T03:12:19.555Z,-0.8
2019-03-25T03:13:10.435Z,-0.8
2019-03-25T03:14:01.312Z,-0.8
2019-03-25T03:14:52.183Z,-0.8
2019-03-25T03:15:43.055Z,-0.8
2019-03-25T03:16:33.924Z,-0.9
2019-03-25T03:17:25.024Z,-0.8
2019-03-25T03:18:15.910Z,-0.7
2019-03-25T03:19:06.788Z,-0.7
2019-03-25T03:19:57.668Z,-0.6
2019-03-25T03:20:48.534Z,-0.3
2019-03-25T03:21:39.417Z,-0.1
2019-03-25T03:22:30.292Z,0.1
2019-03-25T03:23:21.185Z,0.3
2019-03-25T03:24:12.061Z,0.3
2019-03-25T03:25:02.928Z,0.4
2019-03-25T03:25:57.496Z,0.4
2019-03-25T03:26:48.903Z,0.3
2019-03-25T03:27:39.798Z,0.3
2019-03-25T03:28:30.673Z,0.3
2019-03-25T03:29:21.598Z,0.3
2019-03-25T03:30:12.485Z,0.3
2019-03-25T03:31:03.388Z,0.4
2019-03-25T03:31:54.268Z,0.3
2019-03-25T03:32:45.184Z,0.1
2019-03-25T03:33:36.076Z,-0.1
2019-03-25T03:34:26.959Z,-0.1
2019-03-25T03:35:17.840Z,-0.1
2019-03-25T03:36:08.716Z,-0.1
2019-03-25T03:36:59.598Z,-0.1
2019-03-25T03:37:50.519Z,0
2019-03-25T03:38:41.391Z,0.1
2019-03-25T03:39:32.270Z,-0.1
2019-03-25T03:40:23.139Z,-0.1
2019-03-25T03:41:14.014Z,-0.3
2019-03-25T03:42:04.896Z,-0.3
2019-03-25T03:42:55.789Z,-0.3
2019-03-25T03:43:46.689Z,-0.4
2019-03-25T03:44:37.559Z,-0.5
2019-03-25T03:45:28.433Z,-0.4
2019-03-25T03:46:19.302Z,-0.4
2019-03-25T03:47:10.173Z,-0.4
2019-03-25T03:48:01.073Z,-0.5
2019-03-25T03:48:51.945Z,-0.4
2019-03-25T03:49:42.821Z,-0.3
2019-03-25T03:50:33.692Z,-0.3
2019-03-25T03:51:24.569Z,-0.2
2019-03-25T03:52:15.439Z,-0.2
2019-03-25T03:53:06.349Z,-0.3
2019-03-25T03:53:57.218Z,-0.2
2019-03-25T03:54:48.087Z,-0.2
2019-03-25T03:55:38.959Z,-0.3
2019-03-25T03:56:29.832Z,-0.2
2019-03-25T03:57:20.706Z,-0.3
2019-03-25T03:58:11.775Z,-0.3
2019-03-25T03:59:02.651Z,-0.3
2019-03-25T03:59:53.528Z,-0.3
2019-03-25T04:00:44.406Z,-0.4
2019-03-25T04:01:35.278Z,-0.4
2019-03-25T04:02:26.143Z,-0.3
2019-03-25T04:03:17.007Z,-0.3
2019-03-25T04:04:07.913Z,-0.4
2019-03-25T04:04:58.789Z,-0.4
2019-03-25T04:05:49.661Z,-0.4
2019-03-25T04:06:40.535Z,-0.3
2019-03-25T04:07:31.404Z,-0.3
2019-03-25T04:08:22.278Z,-0.1
2019-03-25T04:09:13.191Z,0.1
2019-03-25T04:10:04.060Z,0.3
2019-03-25T04:10:54.932Z,0.3
2019-03-25T04:11:45.805Z,0.4
2019-03-25T04:12:36.671Z,0.5
2019-03-25T04:13:32.597Z,0.5
2019-03-25T04:14:23.466Z,0.4
2019-03-25T04:15:14.337Z,0.3
2019-03-25T04:16:05.214Z,0.3
2019-03-25T04:16:56.089Z,0.3
2019-03-25T04:17:46.974Z,0.3
2019-03-25T04:18:37.907Z,0.3
2019-03-25T04:19:28.786Z,0.3
2019-03-25T04:20:19.663Z,0.3
2019-03-25T04:21:10.549Z,0.2
2019-03-25T04:22:01.432Z,0.3
2019-03-25T04:22:52.313Z,0.3
2019-03-25T04:23:46.242Z,0.3
2019-03-25T04:24:37.311Z,0.3
2019-03-25T04:25:28.183Z,0.2
2019-03-25T04:26:28.004Z,0.1
2019-03-25T04:27:14.865Z,0.1
2019-03-25T04:28:05.736Z,0
2019-03-25T04:28:56.608Z,-0.1
2019-03-25T04:29:47.514Z,0
2019-03-25T04:30:38.380Z,-0.1
2019-03-25T04:31:29.254Z,-0.1
2019-03-25T04:32:20.128Z,-0.1
2019-03-25T04:33:10.999Z,-0.1
2019-03-25T04:34:01.867Z,-0.2
2019-03-25T04:34:52.773Z,-0.3
2019-03-25T04:35:43.639Z,-0.3
2019-03-25T04:36:34.502Z,-0.2
2019-03-25T04:37:25.371Z,-0.2
2019-03-25T04:38:16.271Z,-0.2
2019-03-25T04:39:07.161Z,-0.2
2019-03-25T04:39:58.068Z,-0.1
2019-03-25T04:40:48.998Z,0
2019-03-25T04:41:39.894Z,0.3
2019-03-25T04:42:30.763Z,0.6
2019-03-25T04:43:21.629Z,0.8
2019-03-25T04:44:12.497Z,0.8
2019-03-25T04:45:03.394Z,0.8
2019-03-25T04:45:54.257Z,0.8
2019-03-25T04:46:45.121Z,0.5
2019-03-25T04:47:35.991Z,0.3
2019-03-25T04:48:26.864Z,0.1
2019-03-25T04:49:17.735Z,0.1
2019-03-25T04:50:08.636Z,0
2019-03-25T04:50:59.507Z,0.1
2019-03-25T04:51:50.379Z,-0.1
2019-03-25T04:52:41.247Z,-0.2
2019-03-25T04:53:32.113Z,-0.3
2019-03-25T04:54:22.982Z,-0.1
2019-03-25T04:55:13.882Z,0
2019-03-25T04:56:04.751Z,0.3
2019-03-25T04:56:55.620Z,0.6
2019-03-25T04:57:46.499Z,0.8
2019-03-25T04:58:37.369Z,0.8
2019-03-25T04:59:28.235Z,0.7
2019-03-25T05:00:19.136Z,0.4
2019-03-25T05:01:10.000Z,0.1
2019-03-25T05:02:00.868Z,-0.1
2019-03-25T05:02:51.739Z,-0.2
2019-03-25T05:03:42.613Z,-0.3
2019-03-25T05:04:33.481Z,-0.4
2019-03-25T05:05:24.377Z,-0.4
2019-03-25T05:06:15.247Z,-0.5
2019-03-25T05:07:06.111Z,-0.5
2019-03-25T05:07:56.979Z,-0.6
2019-03-25T05:08:47.844Z,-0.7
2019-03-25T05:09:38.708Z,-0.8
2019-03-25T05:10:29.608Z,-0.8
2019-03-25T05:11:30.231Z,-0.8
2019-03-25T05:12:16.290Z,-0.8
2019-03-25T05:13:07.156Z,-0.8
2019-03-25T05:13:58.029Z,-0.8
2019-03-25T05:14:48.896Z,-0.8
2019-03-25T05:15:39.795Z,-0.8
2019-03-25T05:16:30.688Z,-0.8
2019-03-25T05:17:21.553Z,-0.8
2019-03-25T05:18:12.422Z,-0.8
2019-03-25T05:19:03.290Z,-0.7
2019-03-25T05:19:54.156Z,-0.6
2019-03-25T05:20:45.057Z,-0.4
2019-03-25T05:21:35.928Z,-0.4
2019-03-25T05:22:26.802Z,-0.6
2019-03-25T05:23:17.677Z,-0.6
2019-03-25T05:24:08.548Z,-0.6
2019-03-25T05:24:59.418Z,-0.6
2019-03-25T05:25:50.317Z,-0.6
2019-03-25T05:26:50.458Z,-0.6
2019-03-25T05:27:37.000Z,-0.4
2019-03-25T05:28:27.869Z,-0.4
2019-03-25T05:29:18.733Z,-0.3
2019-03-25T05:30:09.597Z,-0.3
2019-03-25T05:31:00.492Z,-0.3
2019-03-25T05:31:51.362Z,-0.3
2019-03-25T05:32:42.229Z,-0.1
2019-03-25T05:33:33.094Z,-0.1
2019-03-25T05:34:23.962Z,-0.1
2019-03-25T05:35:14.839Z,0.1
2019-03-25T05:36:05.735Z,0.3
2019-03-25T05:36:56.602Z,0.4
2019-03-25T05:37:47.469Z,0.5
2019-03-25T05:38:38.335Z,0.6
2019-03-25T05:39:29.205Z,0.6
2019-03-25T05:40:20.082Z,0.8
2019-03-25T05:41:10.982Z,1
2019-03-25T05:42:01.852Z,1.2
2019-03-25T05:42:52.718Z,1.3
2019-03-25T05:43:43.587Z,1.4
2019-03-25T05:44:34.450Z,1.5
2019-03-25T05:45:25.323Z,1.5
2019-03-25T05:46:16.219Z,1.6
2019-03-25T05:47:07.091Z,1.6
2019-03-25T05:47:57.961Z,1.6
2019-03-25T05:48:48.834Z,1.7
2019-03-25T05:49:39.703Z,1.8
2019-03-25T05:50:30.576Z,1.8
2019-03-25T05:51:21.472Z,1.9
2019-03-25T05:52:12.338Z,2.1
2019-03-25T05:53:03.205Z,2.1
2019-03-25T05:53:54.083Z,2.3
2019-03-25T05:54:44.951Z,2.5
2019-03-25T05:55:35.820Z,2.7
2019-03-25T05:56:26.714Z,2.9
2019-03-25T05:57:17.581Z,2.9
2019-03-25T05:58:08.449Z,2.9
2019-03-25T05:58:59.322Z,2.9
2019-03-25T05:59:50.195Z,2.9
2019-03-25T06:00:41.069Z,2.9
2019-03-25T06:01:31.967Z,2.9
2019-03-25T06:02:22.839Z,2.9
2019-03-25T06:03:13.713Z,3
2019-03-25T06:04:04.592Z,3.1
2019-03-25T06:04:55.463Z,3.1
2019-03-25T06:05:46.329Z,3.1
2019-03-25T06:06:37.233Z,3.2
2019-03-25T06:07:28.105Z,3.3
2019-03-25T06:08:18.980Z,3.3
2019-03-25T06:09:09.854Z,3.2
2019-03-25T06:10:00.723Z,3.2
2019-03-25T06:10:51.591Z,3.1
2019-03-25T06:11:42.488Z,3
2019-03-25T06:12:33.359Z,2.9
2019-03-25T06:13:24.224Z,2.9
2019-03-25T06:14:15.090Z,2.8
2019-03-25T06:15:05.962Z,2.7
2019-03-25T06:15:56.829Z,2.7
2019-03-25T06:16:47.741Z,2.7
2019-03-25T06:17:38.608Z,2.7
2019-03-25T06:18:29.484Z,2.6
2019-03-25T06:19:20.351Z,2.6
2019-03-25T06:20:11.217Z,2.6
2019-03-25T06:21:02.084Z,2.6
2019-03-25T06:21:52.981Z,2.6
2019-03-25T06:22:43.849Z,2.6
2019-03-25T06:23:34.716Z,2.6
2019-03-25T06:24:25.583Z,2.6
2019-03-25T06:25:16.461Z,2.6
2019-03-25T06:26:07.334Z,2.6
2019-03-25T06:26:58.230Z,2.6
2019-03-25T06:27:49.100Z,2.6
2019-03-25T06:28:39.969Z,2.6
2019-03-25T06:29:32.032Z,2.7
2019-03-25T06:30:23.011Z,2.7
2019-03-25T06:31:13.885Z,2.7
2019-03-25T06:32:04.793Z,2.8
2019-03-25T06:32:55.671Z,2.9
2019-03-25T06:33:46.548Z,2.9
2019-03-25T06:34:37.446Z,2.9
2019-03-25T06:35:28.316Z,3
2019-03-25T06:36:19.182Z,3.1
2019-03-25T06:37:10.083Z,3.1
2019-03-25T06:38:00.952Z,3.2
2019-03-25T06:38:51.822Z,3.2
2019-03-25T06:39:42.692Z,3.2
2019-03-25T06:40:33.569Z,3.2
2019-03-25T06:41:24.442Z,3.3
2019-03-25T06:42:15.346Z,3.4
2019-03-25T06:43:06.211Z,3.4
2019-03-25T06:43:57.085Z,3.5
2019-03-25T06:44:47.957Z,3.6
2019-03-25T06:45:38.828Z,3.7
2019-03-25T06:46:29.692Z,3.7
2019-03-25T06:47:20.598Z,3.8
2019-03-25T06:48:11.470Z,3.9
2019-03-25T06:49:02.344Z,4.1
2019-03-25T06:49:53.211Z,4.2
2019-03-25T06:50:44.087Z,4.3
2019-03-25T06:51:34.952Z,4.4
2019-03-25T06:52:25.823Z,4.4
2019-03-25T06:53:17.719Z,4.5
2019-03-25T06:54:08.588Z,4.4
2019-03-25T06:54:59.459Z,4.4
2019-03-25T06:55:50.331Z,4.4
2019-03-25T06:56:41.209Z,4.4
2019-03-25T06:57:32.117Z,4.3
2019-03-25T06:58:22.981Z,4.4
2019-03-25T06:59:13.844Z,4.4
2019-03-25T07:00:04.711Z,4.5
2019-03-25T07:00:55.576Z,4.6
2019-03-25T07:01:46.444Z,4.6
2019-03-25T07:02:37.343Z,4.6
2019-03-25T07:03:29.835Z,4.8
2019-03-25T07:04:20.789Z,4.8
2019-03-25T07:05:11.659Z,4.8
2019-03-25T07:06:02.537Z,4.9
2019-03-25T07:06:53.418Z,5
2019-03-25T07:07:44.320Z,5
2019-03-25T07:08:35.370Z,4.9
2019-03-25T07:09:26.339Z,4.9
2019-03-25T07:10:17.207Z,4.9
2019-03-25T07:11:08.078Z,5.1
2019-03-25T07:11:58.951Z,5.1
2019-03-25T07:12:49.853Z,5.2
2019-03-25T07:13:40.722Z,5.2
2019-03-25T07:14:31.606Z,5.2
2019-03-25T07:15:22.472Z,5.2
2019-03-25T07:16:13.337Z,5.2
2019-03-25T07:17:04.203Z,5.2
2019-03-25T07:17:55.107Z,5.2
2019-03-25T07:18:45.970Z,5.2
2019-03-25T07:19:36.847Z,5.2
2019-03-25T07:20:27.719Z,5.2
2019-03-25T07:21:20.469Z,5.2
2019-03-25T07:22:11.490Z,5.2
2019-03-25T07:23:02.391Z,5.2
2019-03-25T07:23:53.259Z,5.2
2019-03-25T07:24:44.126Z,4.8
2019-03-25T07:25:34.993Z,4.4
2019-03-25T07:26:25.863Z,3.9
2019-03-25T07:27:16.731Z,3.6
2019-03-25T07:28:07.631Z,3.4
2019-03-25T07:28:58.531Z,3.3
2019-03-25T07:29:49.432Z,3.4
2019-03-25T07:30:40.299Z,3.7
2019-03-25T07:31:31.220Z,3.9
2019-03-25T07:32:22.091Z,4.2
2019-03-25T07:33:12.991Z,4.9
2019-03-25T07:34:03.870Z,5.2
2019-03-25T07:34:54.737Z,5.2
2019-03-25T07:35:45.614Z,5.2
2019-03-25T07:36:36.487Z,5.2
2019-03-25T07:37:27.352Z,5.2
2019-03-25T07:38:18.257Z,5.2
2019-03-25T07:39:09.128Z,5.2
2019-03-25T07:39:59.996Z,5.2
2019-03-25T07:40:50.867Z,5.2
2019-03-25T07:41:41.738Z,5.2
2019-03-25T07:42:32.620Z,5.2
2019-03-25T07:43:23.524Z,5.2
2019-03-25T07:44:14.391Z,5.2
2019-03-25T07:45:05.269Z,5.2
2019-03-25T07:45:56.141Z,5.2
2019-03-25T07:46:47.009Z,5.2
2019-03-25T07:47:37.885Z,5.2
2019-03-25T07:48:28.782Z,5.3
2019-03-25T07:49:19.653Z,5.3
2019-03-25T07:50:10.526Z,5.3
2019-03-25T07:51:06.405Z,5.3
2019-03-25T07:51:57.278Z,5.3
2019-03-25T07:52:48.144Z,5.3
2019-03-25T07:53:39.071Z,5.3
2019-03-25T07:54:29.949Z,5.3
2019-03-25T07:55:20.825Z,5.3
2019-03-25T07:56:11.698Z,5.4
2019-03-25T07:57:02.589Z,5.4
2019-03-25T07:57:53.498Z,5.4
2019-03-25T07:58:44.403Z,5.4
2019-03-25T07:59:35.290Z,5.4
2019-03-25T08:00:26.181Z,5.4
2019-03-25T08:01:17.069Z,5.4
2019-03-25T08:02:07.997Z,5.4
2019-03-25T08:02:58.911Z,5.4
2019-03-25T08:03:49.805Z,5.4
2019-03-25T08:04:40.693Z,5.4
2019-03-25T08:05:31.559Z,5.4
2019-03-25T08:06:22.430Z,5.4
2019-03-25T08:07:13.313Z,5.4
2019-03-25T08:08:04.247Z,5.4
2019-03-25T08:09:03.279Z,5.4
2019-03-25T08:09:52.484Z,5.5
2019-03-25T08:10:43.438Z,5.5
2019-03-25T08:11:34.351Z,5.5
2019-03-25T08:12:25.232Z,5.5
2019-03-25T08:13:16.174Z,5.5
2019-03-25T08:14:07.054Z,5.5
2019-03-25T08:14:57.938Z,5.5
2019-03-25T08:15:48.815Z,5.5
2019-03-25T08:16:39.693Z,5.5
2019-03-25T08:17:30.558Z,5.5
2019-03-25T08:18:21.462Z,5.5
2019-03-25T08:19:12.341Z,5.5
2019-03-25T08:20:03.209Z,5.6
2019-03-25T08:20:54.076Z,5.6
2019-03-25T08:21:44.941Z,5.6
2019-03-25T08:22:35.818Z,5.6
2019-03-25T08:23:26.722Z,5.6
2019-03-25T08:24:17.592Z,5.6
2019-03-25T08:25:08.462Z,5.6
2019-03-25T08:25:59.343Z,5.6
2019-03-25T08:26:50.210Z,5.6
2019-03-25T08:27:41.089Z,5.6
2019-03-25T08:28:31.993Z,5.6
2019-03-25T08:29:22.871Z,5.6
2019-03-25T08:30:13.735Z,5.6
2019-03-25T08:31:04.618Z,5.6
2019-03-25T08:31:55.614Z,5.6
2019-03-25T08:32:46.512Z,5.6
2019-03-25T08:33:37.415Z,5.6
2019-03-25T08:34:28.292Z,5.6
2019-03-25T08:35:19.173Z,5.6
2019-03-25T08:36:10.045Z,5.6
2019-03-25T08:37:00.922Z,5.7
2019-03-25T08:37:51.791Z,5.7
2019-03-25T08:38:42.686Z,5.7
2019-03-25T08:39:33.550Z,5.7
2019-03-25T08:40:24.423Z,5.7
2019-03-25T08:41:15.296Z,5.7
2019-03-25T08:42:06.166Z,5.7
2019-03-25T08:42:57.030Z,5.7
2019-03-25T08:43:50.263Z,5.7
2019-03-25T08:44:41.348Z,5.7
2019-03-25T08:45:32.216Z,5.7
2019-03-25T08:46:23.089Z,5.7
2019-03-25T08:47:13.975Z,5.7
2019-03-25T08:48:04.843Z,5.7
2019-03-25T08:48:55.750Z,5.7
2019-03-25T08:49:46.642Z,5.7
2019-03-25T08:50:37.531Z,5.7
2019-03-25T08:51:28.408Z,5.7
2019-03-25T08:52:19.277Z,5.7
2019-03-25T08:53:10.145Z,5.7
2019-03-25T08:54:01.049Z,5.7
2019-03-25T08:54:51.915Z,5.7
2019-03-25T08:55:42.784Z,5.7
2019-03-25T08:56:33.652Z,5.7
2019-03-25T08:57:24.527Z,5.7
2019-03-25T08:58:15.400Z,5.8
2019-03-25T08:59:06.313Z,5.8
2019-03-25T08:59:57.726Z,5.8
2019-03-25T09:00:48.769Z,5.8
2019-03-25T09:01:39.639Z,5.8
2019-03-25T09:02:30.512Z,5.8
2019-03-25T09:03:21.378Z,5.8
2019-03-25T09:04:12.276Z,5.8
2019-03-25T09:05:03.146Z,5.9
2019-03-25T09:05:54.023Z,5.9
2019-03-25T09:06:44.894Z,5.9
2019-03-25T09:07:35.967Z,5.9
2019-03-25T09:08:26.834Z,5.9
2019-03-25T09:09:17.729Z,5.9
2019-03-25T09:10:08.601Z,5.9
2019-03-25T09:10:59.483Z,5.9
2019-03-25T09:11:51.611Z,5.9
2019-03-25T09:12:42.633Z,5.9
2019-03-25T09:13:33.497Z,5.9
2019-03-25T09:14:24.400Z,5.9
2019-03-25T09:15:15.277Z,5.9
2019-03-25T09:16:06.153Z,5.9
2019-03-25T09:16:59.789Z,5.9
2019-03-25T09:17:51.329Z,5.9
2019-03-25T09:18:42.199Z,5.9
2019-03-25T09:19:33.095Z,5.9
2019-03-25T09:20:23.997Z,5.9
2019-03-25T09:21:14.864Z,5.9
2019-03-25T09:22:05.729Z,5.9
2019-03-25T09:22:56.597Z,5.9
2019-03-25T09:23:47.470Z,5.9
2019-03-25T09:24:38.372Z,5.9
2019-03-25T09:25:29.239Z,5.9
2019-03-25T09:26:20.112Z,5.9
2019-03-25T09:27:10.983Z,5.9
2019-03-25T09:28:01.849Z,5.9
2019-03-25T09:28:52.728Z,5.9
2019-03-25T09:29:43.625Z,5.9
2019-03-25T09:30:34.495Z,5.9
2019-03-25T09:31:36.293Z,5.9
2019-03-25T09:32:21.171Z,5.9
2019-03-25T09:33:12.049Z,6
2019-03-25T09:34:02.929Z,6
2019-03-25T09:34:53.839Z,6
2019-03-25T09:35:44.724Z,6
2019-03-25T09:36:35.609Z,6.1
2019-03-25T09:37:26.479Z,6.1
2019-03-25T09:38:17.350Z,6.1
2019-03-25T09:39:09.271Z,6.1
2019-03-25T09:40:00.345Z,6.1
2019-03-25T09:40:51.232Z,6.1
2019-03-25T09:41:42.113Z,6.1
2019-03-25T09:42:32.979Z,6.1
2019-03-25T09:43:23.904Z,6.1
2019-03-25T09:44:14.808Z,6.1
2019-03-25T09:45:05.711Z,6.2
2019-03-25T09:45:56.574Z,6.2
2019-03-25T09:46:47.446Z,6.2
2019-03-25T09:47:38.314Z,6.2
2019-03-25T09:48:29.183Z,6.2
2019-03-25T09:49:20.053Z,6.2
2019-03-25T09:50:10.961Z,6.2
2019-03-25T09:51:01.836Z,6.2
2019-03-25T09:51:53.019Z,6.3
2019-03-25T09:52:43.953Z,6.3
2019-03-25T09:53:34.817Z,6.3
2019-03-25T09:54:25.692Z,6.3
2019-03-25T09:55:16.785Z,6.3
2019-03-25T09:56:07.674Z,6.3
2019-03-25T09:56:58.540Z,6.3
2019-03-25T09:57:49.406Z,6.3
2019-03-25T09:58:40.273Z,6.3
2019-03-25T09:59:31.144Z,6.2
2019-03-25T10:00:22.043Z,6.2
2019-03-25T10:01:12.913Z,6.2
2019-03-25T10:02:03.790Z,6.2
2019-03-25T10:02:54.686Z,6.2
2019-03-25T10:03:45.557Z,6.2
2019-03-25T10:04:36.421Z,6.2
2019-03-25T10:05:27.317Z,5.9
2019-03-25T10:06:18.189Z,5.6
2019-03-25T10:07:09.057Z,5.3
2019-03-25T10:07:59.936Z,4.9
2019-03-25T10:08:50.803Z,4.8
2019-03-25T10:09:41.671Z,4.8
2019-03-25T10:10:32.567Z,4.9
2019-03-25T10:11:23.436Z,4.9
2019-03-25T10:12:14.304Z,5.2
2019-03-25T10:13:05.177Z,5.7
2019-03-25T10:13:56.041Z,6
2019-03-25T10:14:46.908Z,6.1
2019-03-25T10:15:37.823Z,6.1
2019-03-25T10:16:28.693Z,6.1
2019-03-25T10:17:19.556Z,6.1
2019-03-25T10:18:10.423Z,6.1
2019-03-25T10:19:01.320Z,6.1
2019-03-25T10:19:52.205Z,6.1
2019-03-25T10:20:43.100Z,6.1
2019-03-25T10:21:33.974Z,6.1
2019-03-25T10:22:24.848Z,6.1
2019-03-25T10:23:15.737Z,6.1
2019-03-25T10:24:06.622Z,6.1
2019-03-25T10:24:57.485Z,6.1
2019-03-25T10:25:48.380Z,6.1
2019-03-25T10:26:39.249Z,6.1
2019-03-25T10:27:30.118Z,6.2
2019-03-25T10:28:20.987Z,6.2
2019-03-25T10:29:11.856Z,6.2
2019-03-25T10:30:02.725Z,6.2
2019-03-25T10:30:53.625Z,6.2
2019-03-25T10:31:44.489Z,6.2
2019-03-25T10:32:35.358Z,6.2
2019-03-25T10:33:26.230Z,6.2
2019-03-25T10:34:17.100Z,6.2
2019-03-25T10:35:07.969Z,6.2
2019-03-25T10:35:58.881Z,6.3
2019-03-25T10:36:49.747Z,6.3
2019-03-25T10:37:40.623Z,6.3
2019-03-25T10:38:31.490Z,6.3
2019-03-25T10:39:22.359Z,6.3
2019-03-25T10:40:13.229Z,6.3
2019-03-25T10:41:04.151Z,6.3
2019-03-25T10:41:55.023Z,6.3
2019-03-25T10:42:45.911Z,6.3
2019-03-25T10:43:36.824Z,6.4
2019-03-25T10:44:27.713Z,6.3
2019-03-25T10:45:18.579Z,6.4
2019-03-25T10:46:09.446Z,6.3
2019-03-25T10:47:00.344Z,6.4
2019-03-25T10:47:51.211Z,6.4
2019-03-25T10:48:42.080Z,6.4
2019-03-25T10:49:32.947Z,6.4
2019-03-25T10:50:23.818Z,6.4
2019-03-25T10:51:14.688Z,6.4
2019-03-25T10:52:05.591Z,6.4
2019-03-25T10:52:56.516Z,6.4
2019-03-25T10:53:47.465Z,6.4
2019-03-25T10:54:38.476Z,6.4
2019-03-25T10:55:29.380Z,6.4
2019-03-25T10:56:20.254Z,6.4
2019-03-25T10:57:11.150Z,6.4
2019-03-25T10:58:02.018Z,6.4
2019-03-25T10:58:57.820Z,6.4
2019-03-25T10:59:48.698Z,6.4
2019-03-25T11:00:39.566Z,6.4
2019-03-25T11:01:30.440Z,6.4
2019-03-25T11:02:21.353Z,6.4
2019-03-25T11:03:12.221Z,6.4
2019-03-25T11:04:03.092Z,6.4
2019-03-25T11:04:53.964Z,6.4
2019-03-25T11:05:44.861Z,6.4
2019-03-25T11:06:35.779Z,6.4
2019-03-25T11:07:29.320Z,6.4
2019-03-25T11:08:20.305Z,6.4
2019-03-25T11:09:11.178Z,6.4
2019-03-25T11:10:02.060Z,6.4
2019-03-25T11:10:52.940Z,6.4
2019-03-25T11:11:43.837Z,6.4
2019-03-25T11:12:34.706Z,6.5
2019-03-25T11:13:25.578Z,6.5
2019-03-25T11:14:16.443Z,6.5
2019-03-25T11:15:07.311Z,6.5
2019-03-25T11:15:58.178Z,6.5
2019-03-25T11:16:49.072Z,6.5
2019-03-25T11:17:39.939Z,6.5
2019-03-25T11:18:30.810Z,6.5
2019-03-25T11:19:21.679Z,6.4
2019-03-25T11:20:12.548Z,6.4
2019-03-25T11:21:03.411Z,6.4
2019-03-25T11:21:54.310Z,6.4
2019-03-25T11:22:45.184Z,6.4
2019-03-25T11:23:36.054Z,6.4
2019-03-25T11:24:26.928Z,6.4
2019-03-25T11:25:17.793Z,6.4
2019-03-25T11:26:08.657Z,6.4
2019-03-25T11:26:59.547Z,6.4
2019-03-25T11:27:54.050Z,6.4
2019-03-25T11:28:50.544Z,6.4
2019-03-25T11:29:41.409Z,6.4
2019-03-25T11:30:32.278Z,6.4
2019-03-25T11:31:23.149Z,6.4
2019-03-25T11:32:14.045Z,6.4
2019-03-25T11:33:04.918Z,6.5
2019-03-25T11:33:55.785Z,6.5
2019-03-25T11:34:46.654Z,6.5
2019-03-25T11:35:37.521Z,6.5
2019-03-25T11:36:28.393Z,6.5
2019-03-25T11:37:19.294Z,6.5
2019-03-25T11:38:10.159Z,6.5
2019-03-25T11:39:01.028Z,6.6